sensor_id;sensor_type;location;lat;lon;timestamp;P1;durP1;ratioP1;P2;durP2;ratioP2
17618;SDS011;8928;51.678;6.074;2023-04-03T00:02:03;23.13;;;8.20;;
17618;SDS011;8928;51.678;6.074;2023-04-03T00:04:50;28.07;;;9.33;;
17618;SDS011;8928;51.678;6.074;2023-04-03T00:07:37;28.40;;;9.67;;
17618;SDS011;8928;51.678;6.074;2023-04-03T00:10:24;27.30;;;9.17;;
17618;SDS011;8928;51.678;6.074;2023-04-03T00:13:13;22.57;;;8.20;;
17618;SDS011;8928;51.678;6.074;2023-04-03T00:16:00;16.47;;;6.80;;
17618;SDS011;8928;51.678;6.074;2023-04-03T00:18:48;15.97;;;6.50;;
17618;SDS011;8928;51.678;6.074;2023-04-03T00:21:35;13.17;;;6.47;;
17618;SDS011;8928;51.678;6.074;2023-04-03T00:24:22;14.93;;;6.37;;
17618;SDS011;8928;51.678;6.074;2023-04-03T00:27:10;12.17;;;6.30;;
17618;SDS011;8928;51.678;6.074;2023-04-03T00:29:58;21.40;;;6.70;;
17618;SDS011;8928;51.678;6.074;2023-04-03T00:32:46;19.13;;;7.07;;
17618;SDS011;8928;51.678;6.074;2023-04-03T00:35:34;16.20;;;6.30;;
17618;SDS011;8928;51.678;6.074;2023-04-03T00:38:21;13.13;;;6.63;;
17618;SDS011;8928;51.678;6.074;2023-04-03T00:41:08;17.70;;;7.10;;
17618;SDS011;8928;51.678;6.074;2023-04-03T00:43:55;12.07;;;6.40;;
17618;SDS011;8928;51.678;6.074;2023-04-03T00:46:44;12.83;;;6.47;;
17618;SDS011;8928;51.678;6.074;2023-04-03T00:49:31;13.27;;;6.80;;
17618;SDS011;8928;51.678;6.074;2023-04-03T00:52:19;14.37;;;7.07;;
17618;SDS011;8928;51.678;6.074;2023-04-03T00:55:09;13.57;;;6.70;;
17618;SDS011;8928;51.678;6.074;2023-04-03T00:57:56;14.77;;;6.53;;
17618;SDS011;8928;51.678;6.074;2023-04-03T01:00:44;13.20;;;6.73;;
17618;SDS011;8928;51.678;6.074;2023-04-03T01:03:38;14.60;;;7.13;;
17618;SDS011;8928;51.678;6.074;2023-04-03T01:06:26;15.17;;;6.70;;
17618;SDS011;8928;51.678;6.074;2023-04-03T01:09:18;13.10;;;6.60;;
17618;SDS011;8928;51.678;6.074;2023-04-03T01:12:14;15.27;;;6.60;;
17618;SDS011;8928;51.678;6.074;2023-04-03T01:15:05;16.33;;;6.70;;
17618;SDS011;8928;51.678;6.074;2023-04-03T01:17:55;13.03;;;5.83;;
17618;SDS011;8928;51.678;6.074;2023-04-03T01:24:27;13.07;;;5.33;;
17618;SDS011;8928;51.678;6.074;2023-04-03T01:27:18;14.90;;;5.07;;
17618;SDS011;8928;51.678;6.074;2023-04-03T01:30:06;11.03;;;4.90;;
17618;SDS011;8928;51.678;6.074;2023-04-03T01:32:56;10.30;;;5.00;;
17618;SDS011;8928;51.678;6.074;2023-04-03T01:35:43;9.27;;;4.87;;
17618;SDS011;8928;51.678;6.074;2023-04-03T01:38:30;9.67;;;4.80;;
17618;SDS011;8928;51.678;6.074;2023-04-03T01:41:17;13.57;;;4.67;;
17618;SDS011;8928;51.678;6.074;2023-04-03T01:44:06;12.30;;;4.73;;
17618;SDS011;8928;51.678;6.074;2023-04-03T01:46:53;10.67;;;4.50;;
17618;SDS011;8928;51.678;6.074;2023-04-03T01:49:41;12.97;;;4.40;;
17618;SDS011;8928;51.678;6.074;2023-04-03T01:52:29;11.10;;;4.23;;
17618;SDS011;8928;51.678;6.074;2023-04-03T01:55:16;10.00;;;4.20;;
17618;SDS011;8928;51.678;6.074;2023-04-03T01:58:03;12.10;;;4.17;;
17618;SDS011;8928;51.678;6.074;2023-04-03T02:00:50;11.27;;;3.80;;
17618;SDS011;8928;51.678;6.074;2023-04-03T02:03:37;13.10;;;4.10;;
17618;SDS011;8928;51.678;6.074;2023-04-03T02:06:26;13.47;;;4.00;;
17618;SDS011;8928;51.678;6.074;2023-04-03T02:09:13;8.37;;;3.67;;
17618;SDS011;8928;51.678;6.074;2023-04-03T02:12:00;7.87;;;3.53;;
17618;SDS011;8928;51.678;6.074;2023-04-03T02:14:47;11.23;;;3.50;;
17618;SDS011;8928;51.678;6.074;2023-04-03T02:17:34;9.47;;;3.60;;
17618;SDS011;8928;51.678;6.074;2023-04-03T02:20:22;9.30;;;3.23;;
17618;SDS011;8928;51.678;6.074;2023-04-03T02:23:10;11.00;;;3.33;;
17618;SDS011;8928;51.678;6.074;2023-04-03T02:26:04;7.00;;;3.27;;
17618;SDS011;8928;51.678;6.074;2023-04-03T02:28:52;7.60;;;3.27;;
17618;SDS011;8928;51.678;6.074;2023-04-03T02:31:39;9.37;;;3.20;;
17618;SDS011;8928;51.678;6.074;2023-04-03T02:34:26;10.07;;;3.10;;
17618;SDS011;8928;51.678;6.074;2023-04-03T02:37:13;8.80;;;3.17;;
17618;SDS011;8928;51.678;6.074;2023-04-03T02:40:02;8.67;;;3.10;;
17618;SDS011;8928;51.678;6.074;2023-04-03T02:42:51;7.43;;;3.23;;
17618;SDS011;8928;51.678;6.074;2023-04-03T02:45:38;9.67;;;3.37;;
17618;SDS011;8928;51.678;6.074;2023-04-03T02:48:25;10.10;;;3.60;;
17618;SDS011;8928;51.678;6.074;2023-04-03T02:51:12;5.67;;;2.93;;
17618;SDS011;8928;51.678;6.074;2023-04-03T02:53:59;10.93;;;3.00;;
17618;SDS011;8928;51.678;6.074;2023-04-03T02:56:48;6.27;;;2.90;;
17618;SDS011;8928;51.678;6.074;2023-04-03T02:59:35;12.20;;;3.13;;
17618;SDS011;8928;51.678;6.074;2023-04-03T03:02:25;7.47;;;2.90;;
17618;SDS011;8928;51.678;6.074;2023-04-03T03:05:12;7.33;;;3.27;;
17618;SDS011;8928;51.678;6.074;2023-04-03T03:08:00;9.67;;;3.43;;
17618;SDS011;8928;51.678;6.074;2023-04-03T03:10:47;7.33;;;3.30;;
17618;SDS011;8928;51.678;6.074;2023-04-03T03:13:38;11.10;;;3.03;;
17618;SDS011;8928;51.678;6.074;2023-04-03T03:16:25;9.40;;;3.30;;
17618;SDS011;8928;51.678;6.074;2023-04-03T03:19:12;8.07;;;2.87;;
17618;SDS011;8928;51.678;6.074;2023-04-03T03:21:59;9.67;;;2.60;;
17618;SDS011;8928;51.678;6.074;2023-04-03T03:24:46;6.40;;;2.90;;
17618;SDS011;8928;51.678;6.074;2023-04-03T03:27:33;10.20;;;3.20;;
17618;SDS011;8928;51.678;6.074;2023-04-03T03:30:22;8.27;;;2.83;;
17618;SDS011;8928;51.678;6.074;2023-04-03T03:33:09;8.97;;;3.17;;
17618;SDS011;8928;51.678;6.074;2023-04-03T03:35:56;6.17;;;2.90;;
17618;SDS011;8928;51.678;6.074;2023-04-03T03:38:43;9.40;;;3.00;;
17618;SDS011;8928;51.678;6.074;2023-04-03T03:41:30;8.23;;;2.67;;
17618;SDS011;8928;51.678;6.074;2023-04-03T03:44:17;7.87;;;2.80;;
17618;SDS011;8928;51.678;6.074;2023-04-03T03:47:06;7.40;;;2.50;;
17618;SDS011;8928;51.678;6.074;2023-04-03T03:49:56;5.23;;;2.50;;
17618;SDS011;8928;51.678;6.074;2023-04-03T03:52:43;7.73;;;2.90;;
17618;SDS011;8928;51.678;6.074;2023-04-03T03:55:30;9.23;;;3.00;;
17618;SDS011;8928;51.678;6.074;2023-04-03T03:58:17;6.87;;;2.73;;
17618;SDS011;8928;51.678;6.074;2023-04-03T04:01:04;14.23;;;3.10;;
17618;SDS011;8928;51.678;6.074;2023-04-03T04:03:53;7.13;;;3.13;;
17618;SDS011;8928;51.678;6.074;2023-04-03T04:06:40;9.27;;;3.07;;
17618;SDS011;8928;51.678;6.074;2023-04-03T04:09:27;9.67;;;3.30;;
17618;SDS011;8928;51.678;6.074;2023-04-03T04:12:15;6.40;;;2.73;;
17618;SDS011;8928;51.678;6.074;2023-04-03T04:15:02;7.93;;;2.90;;
17618;SDS011;8928;51.678;6.074;2023-04-03T04:17:49;14.67;;;3.10;;
17618;SDS011;8928;51.678;6.074;2023-04-03T04:20:38;10.47;;;2.50;;
17618;SDS011;8928;51.678;6.074;2023-04-03T04:23:25;7.33;;;2.77;;
17618;SDS011;8928;51.678;6.074;2023-04-03T04:26:12;8.83;;;3.00;;
17618;SDS011;8928;51.678;6.074;2023-04-03T04:28:59;5.33;;;2.87;;
17618;SDS011;8928;51.678;6.074;2023-04-03T04:31:46;8.17;;;2.70;;
17618;SDS011;8928;51.678;6.074;2023-04-03T04:34:33;9.60;;;3.10;;
17618;SDS011;8928;51.678;6.074;2023-04-03T04:37:22;8.40;;;2.87;;
17618;SDS011;8928;51.678;6.074;2023-04-03T04:40:09;7.90;;;2.80;;
17618;SDS011;8928;51.678;6.074;2023-04-03T04:42:56;6.03;;;2.63;;
17618;SDS011;8928;51.678;6.074;2023-04-03T04:45:43;6.97;;;2.57;;
17618;SDS011;8928;51.678;6.074;2023-04-03T04:48:31;6.97;;;2.63;;
17618;SDS011;8928;51.678;6.074;2023-04-03T04:51:18;6.50;;;2.80;;
17618;SDS011;8928;51.678;6.074;2023-04-03T04:54:06;6.93;;;2.73;;
17618;SDS011;8928;51.678;6.074;2023-04-03T04:56:53;7.60;;;2.70;;
17618;SDS011;8928;51.678;6.074;2023-04-03T04:59:40;9.00;;;3.03;;
17618;SDS011;8928;51.678;6.074;2023-04-03T05:02:27;7.03;;;2.60;;
17618;SDS011;8928;51.678;6.074;2023-04-03T05:05:14;9.87;;;2.60;;
17618;SDS011;8928;51.678;6.074;2023-04-03T05:08:02;7.13;;;2.60;;
17618;SDS011;8928;51.678;6.074;2023-04-03T05:10:51;7.90;;;2.70;;
17618;SDS011;8928;51.678;6.074;2023-04-03T05:13:38;7.03;;;2.50;;
17618;SDS011;8928;51.678;6.074;2023-04-03T05:16:25;6.50;;;2.77;;
17618;SDS011;8928;51.678;6.074;2023-04-03T05:19:12;6.67;;;2.30;;
17618;SDS011;8928;51.678;6.074;2023-04-03T05:22:00;6.77;;;2.40;;
17618;SDS011;8928;51.678;6.074;2023-04-03T05:24:47;7.10;;;2.70;;
17618;SDS011;8928;51.678;6.074;2023-04-03T05:27:36;7.53;;;2.50;;
17618;SDS011;8928;51.678;6.074;2023-04-03T05:30:23;10.23;;;2.30;;
17618;SDS011;8928;51.678;6.074;2023-04-03T05:33:10;8.07;;;2.57;;
17618;SDS011;8928;51.678;6.074;2023-04-03T05:36:01;10.30;;;2.60;;
17618;SDS011;8928;51.678;6.074;2023-04-03T05:38:49;6.40;;;2.40;;
17618;SDS011;8928;51.678;6.074;2023-04-03T05:41:36;9.60;;;2.87;;
17618;SDS011;8928;51.678;6.074;2023-04-03T05:44:25;7.67;;;2.70;;
17618;SDS011;8928;51.678;6.074;2023-04-03T05:47:12;8.00;;;2.50;;
17618;SDS011;8928;51.678;6.074;2023-04-03T05:49:59;8.00;;;2.77;;
17618;SDS011;8928;51.678;6.074;2023-04-03T05:52:46;7.40;;;2.70;;
17618;SDS011;8928;51.678;6.074;2023-04-03T05:55:36;8.60;;;2.60;;
17618;SDS011;8928;51.678;6.074;2023-04-03T05:58:23;10.60;;;2.57;;
17618;SDS011;8928;51.678;6.074;2023-04-03T06:01:11;9.40;;;2.63;;
17618;SDS011;8928;51.678;6.074;2023-04-03T06:03:58;7.43;;;2.23;;
17618;SDS011;8928;51.678;6.074;2023-04-03T06:06:46;7.07;;;2.50;;
17618;SDS011;8928;51.678;6.074;2023-04-03T06:09:34;7.70;;;2.53;;
17618;SDS011;8928;51.678;6.074;2023-04-03T06:12:21;8.93;;;2.80;;
17618;SDS011;8928;51.678;6.074;2023-04-03T06:15:09;6.77;;;2.53;;
17618;SDS011;8928;51.678;6.074;2023-04-03T06:17:58;7.77;;;2.40;;
17618;SDS011;8928;51.678;6.074;2023-04-03T06:20:45;5.33;;;2.40;;
17618;SDS011;8928;51.678;6.074;2023-04-03T06:23:32;8.33;;;2.60;;
17618;SDS011;8928;51.678;6.074;2023-04-03T06:26:20;7.50;;;2.30;;
17618;SDS011;8928;51.678;6.074;2023-04-03T06:29:08;11.70;;;2.50;;
17618;SDS011;8928;51.678;6.074;2023-04-03T06:31:56;9.13;;;2.87;;
17618;SDS011;8928;51.678;6.074;2023-04-03T06:34:44;7.93;;;2.07;;
17618;SDS011;8928;51.678;6.074;2023-04-03T06:37:32;5.10;;;2.23;;
17618;SDS011;8928;51.678;6.074;2023-04-03T06:40:19;7.03;;;2.00;;
17618;SDS011;8928;51.678;6.074;2023-04-03T06:43:08;8.33;;;2.13;;
17618;SDS011;8928;51.678;6.074;2023-04-03T06:45:55;9.33;;;2.37;;
17618;SDS011;8928;51.678;6.074;2023-04-03T06:48:42;8.83;;;2.50;;
17618;SDS011;8928;51.678;6.074;2023-04-03T06:51:31;8.63;;;2.20;;
17618;SDS011;8928;51.678;6.074;2023-04-03T06:54:18;12.53;;;2.57;;
17618;SDS011;8928;51.678;6.074;2023-04-03T06:57:05;12.30;;;2.20;;
17618;SDS011;8928;51.678;6.074;2023-04-03T06:59:53;5.73;;;1.93;;
17618;SDS011;8928;51.678;6.074;2023-04-03T07:02:40;9.73;;;2.30;;
17618;SDS011;8928;51.678;6.074;2023-04-03T07:05:27;7.80;;;2.30;;
17618;SDS011;8928;51.678;6.074;2023-04-03T07:08:16;6.77;;;2.00;;
17618;SDS011;8928;51.678;6.074;2023-04-03T07:11:03;9.93;;;2.20;;
17618;SDS011;8928;51.678;6.074;2023-04-03T07:13:50;7.27;;;2.10;;
17618;SDS011;8928;51.678;6.074;2023-04-03T07:16:37;5.93;;;1.77;;
17618;SDS011;8928;51.678;6.074;2023-04-03T07:19:24;7.03;;;1.90;;
17618;SDS011;8928;51.678;6.074;2023-04-03T07:22:13;5.60;;;2.20;;
17618;SDS011;8928;51.678;6.074;2023-04-03T07:25:01;7.47;;;1.80;;
17618;SDS011;8928;51.678;6.074;2023-04-03T07:27:49;9.03;;;2.10;;
17618;SDS011;8928;51.678;6.074;2023-04-03T07:30:41;5.83;;;2.13;;
17618;SDS011;8928;51.678;6.074;2023-04-03T07:33:29;6.87;;;1.63;;
17618;SDS011;8928;51.678;6.074;2023-04-03T07:36:18;6.00;;;1.97;;
17618;SDS011;8928;51.678;6.074;2023-04-03T07:39:07;8.67;;;2.00;;
17618;SDS011;8928;51.678;6.074;2023-04-03T07:41:55;6.60;;;1.90;;
17618;SDS011;8928;51.678;6.074;2023-04-03T07:44:42;4.57;;;1.60;;
17618;SDS011;8928;51.678;6.074;2023-04-03T07:47:29;6.03;;;1.93;;
17618;SDS011;8928;51.678;6.074;2023-04-03T07:50:17;7.17;;;1.90;;
17618;SDS011;8928;51.678;6.074;2023-04-03T07:53:04;7.37;;;1.90;;
17618;SDS011;8928;51.678;6.074;2023-04-03T07:55:51;5.53;;;1.70;;
17618;SDS011;8928;51.678;6.074;2023-04-03T07:58:42;6.90;;;1.70;;
17618;SDS011;8928;51.678;6.074;2023-04-03T08:01:29;6.43;;;1.60;;
17618;SDS011;8928;51.678;6.074;2023-04-03T08:04:17;6.90;;;1.70;;
17618;SDS011;8928;51.678;6.074;2023-04-03T08:07:04;8.23;;;1.63;;
17618;SDS011;8928;51.678;6.074;2023-04-03T08:09:52;7.67;;;1.67;;
17618;SDS011;8928;51.678;6.074;2023-04-03T08:12:39;6.07;;;1.70;;
17618;SDS011;8928;51.678;6.074;2023-04-03T08:15:27;4.90;;;1.40;;
17618;SDS011;8928;51.678;6.074;2023-04-03T08:18:16;6.43;;;1.47;;
17618;SDS011;8928;51.678;6.074;2023-04-03T08:21:06;5.67;;;1.47;;
17618;SDS011;8928;51.678;6.074;2023-04-03T08:23:55;7.70;;;1.80;;
17618;SDS011;8928;51.678;6.074;2023-04-03T08:26:42;8.10;;;1.40;;
17618;SDS011;8928;51.678;6.074;2023-04-03T08:29:29;7.63;;;1.30;;
17618;SDS011;8928;51.678;6.074;2023-04-03T08:32:18;5.67;;;1.40;;
17618;SDS011;8928;51.678;6.074;2023-04-03T08:35:05;5.40;;;1.47;;
17618;SDS011;8928;51.678;6.074;2023-04-03T08:37:52;6.10;;;1.60;;
17618;SDS011;8928;51.678;6.074;2023-04-03T08:40:39;5.27;;;1.40;;
17618;SDS011;8928;51.678;6.074;2023-04-03T08:43:29;6.03;;;1.47;;
17618;SDS011;8928;51.678;6.074;2023-04-03T08:46:22;6.87;;;1.07;;
17618;SDS011;8928;51.678;6.074;2023-04-03T08:49:16;6.83;;;1.13;;
17618;SDS011;8928;51.678;6.074;2023-04-03T08:52:08;3.73;;;1.00;;
17618;SDS011;8928;51.678;6.074;2023-04-03T08:54:58;3.70;;;1.13;;
17618;SDS011;8928;51.678;6.074;2023-04-03T08:57:47;4.03;;;1.03;;
17618;SDS011;8928;51.678;6.074;2023-04-03T09:00:37;3.17;;;0.90;;
17618;SDS011;8928;51.678;6.074;2023-04-03T09:03:31;3.93;;;0.90;;
17618;SDS011;8928;51.678;6.074;2023-04-03T09:06:22;3.33;;;1.00;;
17618;SDS011;8928;51.678;6.074;2023-04-03T09:09:14;3.80;;;1.00;;
17618;SDS011;8928;51.678;6.074;2023-04-03T09:12:18;3.77;;;1.07;;
17618;SDS011;8928;51.678;6.074;2023-04-03T09:15:15;4.70;;;0.80;;
17618;SDS011;8928;51.678;6.074;2023-04-03T09:18:05;3.03;;;0.77;;
17618;SDS011;8928;51.678;6.074;2023-04-03T09:20:58;3.27;;;0.77;;
17618;SDS011;8928;51.678;6.074;2023-04-03T09:23:54;2.63;;;0.70;;
17618;SDS011;8928;51.678;6.074;2023-04-03T09:26:44;4.50;;;0.80;;
17618;SDS011;8928;51.678;6.074;2023-04-03T09:29:36;3.10;;;0.67;;
17618;SDS011;8928;51.678;6.074;2023-04-03T09:32:28;2.43;;;0.67;;
17618;SDS011;8928;51.678;6.074;2023-04-03T09:35:18;3.03;;;0.60;;
17618;SDS011;8928;51.678;6.074;2023-04-03T09:38:15;2.67;;;0.60;;
17618;SDS011;8928;51.678;6.074;2023-04-03T09:41:13;2.20;;;0.60;;
17618;SDS011;8928;51.678;6.074;2023-04-03T09:44:03;2.27;;;0.60;;
17618;SDS011;8928;51.678;6.074;2023-04-03T09:47:17;1.60;;;0.60;;
17618;SDS011;8928;51.678;6.074;2023-04-03T09:50:10;2.07;;;0.60;;
17618;SDS011;8928;51.678;6.074;2023-04-03T09:53:06;1.30;;;0.60;;
17618;SDS011;8928;51.678;6.074;2023-04-03T09:56:20;1.70;;;0.50;;
17618;SDS011;8928;51.678;6.074;2023-04-03T09:59:12;1.60;;;0.50;;
17618;SDS011;8928;51.678;6.074;2023-04-03T10:02:03;2.30;;;0.60;;
17618;SDS011;8928;51.678;6.074;2023-04-03T10:04:59;1.70;;;0.70;;
17618;SDS011;8928;51.678;6.074;2023-04-03T10:07:46;4.13;;;0.70;;
17618;SDS011;8928;51.678;6.074;2023-04-03T10:10:33;2.33;;;0.80;;
17618;SDS011;8928;51.678;6.074;2023-04-03T10:13:22;2.23;;;0.50;;
17618;SDS011;8928;51.678;6.074;2023-04-03T10:16:11;3.87;;;0.70;;
17618;SDS011;8928;51.678;6.074;2023-04-03T10:19:09;2.37;;;0.70;;
17618;SDS011;8928;51.678;6.074;2023-04-03T10:22:04;1.90;;;0.50;;
17618;SDS011;8928;51.678;6.074;2023-04-03T10:25:04;3.43;;;0.60;;
17618;SDS011;8928;51.678;6.074;2023-04-03T10:27:59;2.93;;;0.60;;
17618;SDS011;8928;51.678;6.074;2023-04-03T10:30:50;1.73;;;0.60;;
17618;SDS011;8928;51.678;6.074;2023-04-03T10:33:45;1.37;;;0.50;;
17618;SDS011;8928;51.678;6.074;2023-04-03T10:36:47;1.30;;;0.50;;
17618;SDS011;8928;51.678;6.074;2023-04-03T10:39:43;2.23;;;0.60;;
17618;SDS011;8928;51.678;6.074;2023-04-03T10:42:39;2.50;;;0.60;;
17618;SDS011;8928;51.678;6.074;2023-04-03T10:45:37;2.03;;;0.80;;
17618;SDS011;8928;51.678;6.074;2023-04-03T10:48:40;2.70;;;0.73;;
17618;SDS011;8928;51.678;6.074;2023-04-03T10:51:41;2.17;;;0.70;;
17618;SDS011;8928;51.678;6.074;2023-04-03T10:54:32;3.10;;;0.60;;
17618;SDS011;8928;51.678;6.074;2023-04-03T10:57:24;1.60;;;0.70;;
17618;SDS011;8928;51.678;6.074;2023-04-03T11:00:14;1.57;;;0.60;;
17618;SDS011;8928;51.678;6.074;2023-04-03T11:03:07;4.07;;;0.77;;
17618;SDS011;8928;51.678;6.074;2023-04-03T11:05:59;2.27;;;0.70;;
17618;SDS011;8928;51.678;6.074;2023-04-03T11:08:52;4.47;;;0.80;;
17618;SDS011;8928;51.678;6.074;2023-04-03T11:11:42;2.33;;;0.80;;
17618;SDS011;8928;51.678;6.074;2023-04-03T11:14:30;2.67;;;0.80;;
17618;SDS011;8928;51.678;6.074;2023-04-03T11:17:22;3.33;;;1.00;;
17618;SDS011;8928;51.678;6.074;2023-04-03T11:20:19;2.83;;;0.83;;
17618;SDS011;8928;51.678;6.074;2023-04-03T11:23:13;3.93;;;1.00;;
17618;SDS011;8928;51.678;6.074;2023-04-03T11:26:11;2.97;;;0.90;;
17618;SDS011;8928;51.678;6.074;2023-04-03T11:29:00;2.87;;;0.80;;
17618;SDS011;8928;51.678;6.074;2023-04-03T11:31:59;2.50;;;0.77;;
17618;SDS011;8928;51.678;6.074;2023-04-03T11:34:54;3.37;;;0.97;;
17618;SDS011;8928;51.678;6.074;2023-04-03T11:37:47;2.17;;;0.80;;
17618;SDS011;8928;51.678;6.074;2023-04-03T11:40:36;3.03;;;0.80;;
17618;SDS011;8928;51.678;6.074;2023-04-03T11:43:27;3.10;;;0.70;;
17618;SDS011;8928;51.678;6.074;2023-04-03T11:46:15;1.53;;;0.60;;
17618;SDS011;8928;51.678;6.074;2023-04-03T11:49:04;1.50;;;0.80;;
17618;SDS011;8928;51.678;6.074;2023-04-03T11:52:13;3.20;;;0.90;;
17618;SDS011;8928;51.678;6.074;2023-04-03T11:55:47;1.30;;;0.70;;
17618;SDS011;8928;51.678;6.074;2023-04-03T11:58:40;1.90;;;0.67;;
17618;SDS011;8928;51.678;6.074;2023-04-03T12:05:25;3.07;;;0.90;;
17618;SDS011;8928;51.678;6.074;2023-04-03T12:08:23;3.60;;;0.70;;
17618;SDS011;8928;51.678;6.074;2023-04-03T12:11:19;1.73;;;0.73;;
17618;SDS011;8928;51.678;6.074;2023-04-03T12:14:13;3.40;;;0.80;;
17618;SDS011;8928;51.678;6.074;2023-04-03T12:17:02;5.07;;;0.90;;
17618;SDS011;8928;51.678;6.074;2023-04-03T12:19:49;2.97;;;0.90;;
17618;SDS011;8928;51.678;6.074;2023-04-03T12:22:36;3.47;;;0.90;;
17618;SDS011;8928;51.678;6.074;2023-04-03T12:25:47;3.60;;;1.10;;
17618;SDS011;8928;51.678;6.074;2023-04-03T12:28:37;2.87;;;0.97;;
17618;SDS011;8928;51.678;6.074;2023-04-03T12:31:31;3.20;;;1.10;;
17618;SDS011;8928;51.678;6.074;2023-04-03T12:34:35;2.40;;;0.90;;
17618;SDS011;8928;51.678;6.074;2023-04-03T12:37:46;5.93;;;1.10;;
17618;SDS011;8928;51.678;6.074;2023-04-03T12:41:07;2.57;;;1.00;;
17618;SDS011;8928;51.678;6.074;2023-04-03T12:44:12;2.70;;;0.90;;
17618;SDS011;8928;51.678;6.074;2023-04-03T12:47:21;7.17;;;2.60;;
17618;SDS011;8928;51.678;6.074;2023-04-03T12:50:20;3.60;;;1.33;;
17618;SDS011;8928;51.678;6.074;2023-04-03T12:53:11;3.13;;;1.33;;
17618;SDS011;8928;51.678;6.074;2023-04-03T12:59:15;2.90;;;1.00;;
17618;SDS011;8928;51.678;6.074;2023-04-03T13:02:08;3.17;;;1.40;;
17618;SDS011;8928;51.678;6.074;2023-04-03T13:05:05;3.20;;;1.30;;
17618;SDS011;8928;51.678;6.074;2023-04-03T13:07:54;3.57;;;1.00;;
17618;SDS011;8928;51.678;6.074;2023-04-03T13:10:51;5.60;;;1.00;;
17618;SDS011;8928;51.678;6.074;2023-04-03T13:13:45;2.28;;;0.93;;
17618;SDS011;8928;51.678;6.074;2023-04-03T13:16:42;2.90;;;1.00;;
17618;SDS011;8928;51.678;6.074;2023-04-03T13:19:39;2.58;;;1.23;;
17618;SDS011;8928;51.678;6.074;2023-04-03T13:22:28;2.65;;;1.00;;
17618;SDS011;8928;51.678;6.074;2023-04-03T13:25:18;3.92;;;1.33;;
17618;SDS011;8928;51.678;6.074;2023-04-03T13:28:07;3.25;;;1.38;;
17618;SDS011;8928;51.678;6.074;2023-04-03T13:31:00;3.95;;;1.80;;
17618;SDS011;8928;51.678;6.074;2023-04-03T13:33:54;6.00;;;1.20;;
17618;SDS011;8928;51.678;6.074;2023-04-03T13:36:44;2.85;;;1.10;;
17618;SDS011;8928;51.678;6.074;2023-04-03T13:39:40;4.75;;;1.60;;
17618;SDS011;8928;51.678;6.074;2023-04-03T13:42:28;2.65;;;1.02;;
17618;SDS011;8928;51.678;6.074;2023-04-03T13:45:18;2.63;;;1.10;;
17618;SDS011;8928;51.678;6.074;2023-04-03T13:48:14;2.67;;;0.90;;
17618;SDS011;8928;51.678;6.074;2023-04-03T13:51:05;3.55;;;1.40;;
17618;SDS011;8928;51.678;6.074;2023-04-03T13:54:10;4.47;;;1.50;;
17618;SDS011;8928;51.678;6.074;2023-04-03T13:57:10;4.25;;;1.10;;
17618;SDS011;8928;51.678;6.074;2023-04-03T13:59:59;7.03;;;1.13;;
17618;SDS011;8928;51.678;6.074;2023-04-03T14:02:47;4.75;;;1.10;;
17618;SDS011;8928;51.678;6.074;2023-04-03T14:05:34;4.65;;;1.10;;
17618;SDS011;8928;51.678;6.074;2023-04-03T14:08:22;2.78;;;1.10;;
17618;SDS011;8928;51.678;6.074;2023-04-03T14:11:13;4.15;;;1.00;;
17618;SDS011;8928;51.678;6.074;2023-04-03T14:14:02;2.13;;;0.93;;
17618;SDS011;8928;51.678;6.074;2023-04-03T14:16:57;4.05;;;1.00;;
17618;SDS011;8928;51.678;6.074;2023-04-03T14:19:45;3.38;;;1.20;;
17618;SDS011;8928;51.678;6.074;2023-04-03T14:22:32;2.90;;;1.00;;
17618;SDS011;8928;51.678;6.074;2023-04-03T14:25:21;4.00;;;1.40;;
17618;SDS011;8928;51.678;6.074;2023-04-03T14:28:14;5.80;;;1.10;;
17618;SDS011;8928;51.678;6.074;2023-04-03T14:31:03;2.70;;;1.08;;
17618;SDS011;8928;51.678;6.074;2023-04-03T14:33:50;4.35;;;1.08;;
17618;SDS011;8928;51.678;6.074;2023-04-03T14:36:38;2.53;;;1.10;;
17618;SDS011;8928;51.678;6.074;2023-04-03T14:39:27;2.28;;;1.00;;
17618;SDS011;8928;51.678;6.074;2023-04-03T14:42:16;2.63;;;1.15;;
17618;SDS011;8928;51.678;6.074;2023-04-03T14:45:06;3.40;;;1.20;;
17618;SDS011;8928;51.678;6.074;2023-04-03T14:47:55;3.78;;;1.20;;
17618;SDS011;8928;51.678;6.074;2023-04-03T14:50:42;3.28;;;1.30;;
17618;SDS011;8928;51.678;6.074;2023-04-03T14:53:29;3.95;;;1.25;;
17618;SDS011;8928;51.678;6.074;2023-04-03T14:56:18;3.28;;;1.15;;
17618;SDS011;8928;51.678;6.074;2023-04-03T14:59:09;4.47;;;1.77;;
17618;SDS011;8928;51.678;6.074;2023-04-03T15:01:59;3.25;;;1.33;;
17618;SDS011;8928;51.678;6.074;2023-04-03T15:04:46;2.90;;;1.50;;
17618;SDS011;8928;51.678;6.074;2023-04-03T15:07:34;3.45;;;1.40;;
17618;SDS011;8928;51.678;6.074;2023-04-03T15:10:24;2.63;;;1.08;;
17618;SDS011;8928;51.678;6.074;2023-04-03T15:13:13;2.72;;;1.40;;
17618;SDS011;8928;51.678;6.074;2023-04-03T15:16:02;4.97;;;1.17;;
17618;SDS011;8928;51.678;6.074;2023-04-03T15:18:49;4.50;;;1.23;;
17618;SDS011;8928;51.678;6.074;2023-04-03T15:21:36;4.38;;;1.30;;
17618;SDS011;8928;51.678;6.074;2023-04-03T15:24:23;4.18;;;1.40;;
17618;SDS011;8928;51.678;6.074;2023-04-03T15:27:11;4.05;;;1.45;;
17618;SDS011;8928;51.678;6.074;2023-04-03T15:30:00;3.10;;;1.20;;
17618;SDS011;8928;51.678;6.074;2023-04-03T15:32:49;3.58;;;1.60;;
17618;SDS011;8928;51.678;6.074;2023-04-03T15:35:36;3.88;;;2.00;;
17618;SDS011;8928;51.678;6.074;2023-04-03T15:38:23;3.80;;;1.40;;
17618;SDS011;8928;51.678;6.074;2023-04-03T15:41:10;2.50;;;1.30;;
17618;SDS011;8928;51.678;6.074;2023-04-03T15:43:57;6.70;;;1.38;;
17618;SDS011;8928;51.678;6.074;2023-04-03T15:46:44;3.20;;;1.50;;
17618;SDS011;8928;51.678;6.074;2023-04-03T15:49:33;3.20;;;1.45;;
17618;SDS011;8928;51.678;6.074;2023-04-03T15:52:21;2.92;;;1.30;;
17618;SDS011;8928;51.678;6.074;2023-04-03T15:55:08;5.00;;;1.17;;
17618;SDS011;8928;51.678;6.074;2023-04-03T15:57:55;4.07;;;1.27;;
17618;SDS011;8928;51.678;6.074;2023-04-03T16:00:43;3.15;;;1.02;;
17618;SDS011;8928;51.678;6.074;2023-04-03T16:03:30;3.85;;;1.33;;
17618;SDS011;8928;51.678;6.074;2023-04-03T16:06:18;5.22;;;1.10;;
17618;SDS011;8928;51.678;6.074;2023-04-03T16:09:06;3.17;;;1.30;;
17618;SDS011;8928;51.678;6.074;2023-04-03T16:11:53;4.20;;;1.23;;
17618;SDS011;8928;51.678;6.074;2023-04-03T16:14:41;3.97;;;1.00;;
17618;SDS011;8928;51.678;6.074;2023-04-03T16:17:28;5.28;;;1.35;;
17618;SDS011;8928;51.678;6.074;2023-04-03T16:20:16;4.45;;;1.20;;
17618;SDS011;8928;51.678;6.074;2023-04-03T16:23:05;3.63;;;1.23;;
17618;SDS011;8928;51.678;6.074;2023-04-03T16:25:52;2.38;;;1.10;;
17618;SDS011;8928;51.678;6.074;2023-04-03T16:28:39;3.38;;;1.35;;
17618;SDS011;8928;51.678;6.074;2023-04-03T16:31:26;3.83;;;1.30;;
17618;SDS011;8928;51.678;6.074;2023-04-03T16:34:13;4.00;;;1.40;;
17618;SDS011;8928;51.678;6.074;2023-04-03T16:37:01;6.93;;;1.50;;
17618;SDS011;8928;51.678;6.074;2023-04-03T16:39:50;3.58;;;1.30;;
17618;SDS011;8928;51.678;6.074;2023-04-03T16:42:37;4.13;;;1.60;;
17618;SDS011;8928;51.678;6.074;2023-04-03T16:45:24;4.68;;;1.67;;
17618;SDS011;8928;51.678;6.074;2023-04-03T16:48:11;4.10;;;1.40;;
17618;SDS011;8928;51.678;6.074;2023-04-03T16:50:59;3.90;;;1.40;;
17618;SDS011;8928;51.678;6.074;2023-04-03T16:53:46;6.43;;;1.67;;
17618;SDS011;8928;51.678;6.074;2023-04-03T16:56:34;4.88;;;2.08;;
17618;SDS011;8928;51.678;6.074;2023-04-03T16:59:21;5.18;;;1.58;;
17618;SDS011;8928;51.678;6.074;2023-04-03T17:02:09;4.05;;;1.58;;
17618;SDS011;8928;51.678;6.074;2023-04-03T17:04:56;3.80;;;1.63;;
17618;SDS011;8928;51.678;6.074;2023-04-03T17:07:43;4.82;;;2.20;;
17618;SDS011;8928;51.678;6.074;2023-04-03T17:10:30;5.32;;;2.00;;
17618;SDS011;8928;51.678;6.074;2023-04-03T17:13:20;5.00;;;1.50;;
17618;SDS011;8928;51.678;6.074;2023-04-03T17:16:08;5.47;;;1.70;;
17618;SDS011;8928;51.678;6.074;2023-04-03T17:18:58;4.75;;;1.63;;
17618;SDS011;8928;51.678;6.074;2023-04-03T17:21:46;5.00;;;1.90;;
17618;SDS011;8928;51.678;6.074;2023-04-03T17:24:33;3.92;;;1.52;;
17618;SDS011;8928;51.678;6.074;2023-04-03T17:27:20;5.28;;;1.63;;
17618;SDS011;8928;51.678;6.074;2023-04-03T17:30:09;4.50;;;1.73;;